createdAt,value
2018-10-17T00:00:49.004Z,100925.54
2018-10-17T00:03:38.027Z,100925.19
2018-10-17T00:06:25.420Z,100917.56
2018-10-17T00:18:31.098Z,100934.47
2018-10-17T00:24:26.095Z,100930.55
2018-10-17T00:27:13.718Z,100921.89
2018-10-17T00:36:16.389Z,100933.98
2018-10-17T00:39:07.396Z,100931.11
2018-10-17T00:41:55.383Z,100933.92
2018-10-17T00:44:42.841Z,100935.28
2018-10-17T00:47:30.959Z,100932.48
2018-10-17T00:53:32.952Z,100930.53
2018-10-17T00:59:27.783Z,100923.06
2018-10-17T01:02:15.177Z,100927.69
2018-10-17T01:08:09.042Z,100918.86
2018-10-17T01:10:56.235Z,100922.59
2018-10-17T01:16:52.114Z,100910.95
2018-10-17T01:19:54.910Z,100904.50
2018-10-17T01:25:48.823Z,100897.95
2018-10-17T01:28:44.448Z,100895.36
2018-10-17T01:34:53.609Z,100900.65
2018-10-17T01:37:40.958Z,100896.58
2018-10-17T01:43:36.318Z,100893.92
2018-10-17T01:46:24.022Z,100902.13
2018-10-17T01:52:31.409Z,100895.98
2018-10-17T01:58:24.687Z,100884.45
2018-10-17T02:07:24.938Z,100882.95
2018-10-17T02:16:40.193Z,100879.48
2018-10-17T02:19:35.346Z,100884.45
2018-10-17T02:25:28.999Z,100887.91
2018-10-17T02:34:33.107Z,100889.68
2018-10-17T02:37:28.115Z,100889.45
2018-10-17T02:40:16.491Z,100888.34
2018-10-17T02:43:12.173Z,100887.69
2018-10-17T02:45:59.915Z,100897.25
2018-10-17T02:51:55.480Z,100897.34
2018-10-17T02:57:49.855Z,100893.85
2018-10-17T03:00:40.725Z,100893.84
2018-10-17T03:03:27.764Z,100899.51
2018-10-17T03:15:36.070Z,100911.61
2018-10-17T03:18:25.034Z,100913.41
2018-10-17T03:21:12.628Z,100909.08
2018-10-17T03:36:35.047Z,100910.26
2018-10-17T03:39:37.491Z,100912.69
2018-10-17T03:42:25.072Z,100917.16
2018-10-17T03:57:39.520Z,100906.02
2018-10-17T04:00:26.937Z,100913.52
2018-10-17T04:09:37.952Z,100919.09
2018-10-17T04:12:25.191Z,100917.81
2018-10-17T04:15:26.371Z,100918.82
2018-10-17T04:18:13.760Z,100914.08
2018-10-17T04:21:01.404Z,100913.15
2018-10-17T04:23:49.749Z,100916.30
2018-10-17T04:32:51.294Z,100920.66
2018-10-17T04:35:43.501Z,100925.19
2018-10-17T04:38:32.066Z,100929.52
2018-10-17T04:41:20.172Z,100933.72
2018-10-17T04:44:07.716Z,100931.66
2018-10-17T04:50:01.827Z,100929.31
2018-10-17T04:52:50.788Z,100932.28
2018-10-17T04:58:48.767Z,100925.16
2018-10-17T05:04:45.529Z,100926.91
2018-10-17T05:07:33.006Z,100926.88
2018-10-17T05:10:21.577Z,100924.66
2018-10-17T05:13:09.203Z,100928.59
2018-10-17T05:15:58.625Z,100933.84
2018-10-17T05:18:47.057Z,100931.13
2018-10-17T05:21:49.665Z,100943.38
2018-10-17T05:24:39.151Z,100943.70
2018-10-17T05:33:42.894Z,100947.81
2018-10-17T05:36:30.673Z,100943.82
2018-10-17T05:39:17.951Z,100945.33
2018-10-17T05:42:05.181Z,100947.41
2018-10-17T05:44:57.039Z,100950.46
2018-10-17T05:47:44.666Z,100951.87
2018-10-17T05:50:33.407Z,100946.81
2018-10-17T05:53:22.646Z,100953.92
2018-10-17T05:56:17.902Z,100961.32
2018-10-17T05:59:07.829Z,100955.56
2018-10-17T06:08:10.298Z,100955.65
2018-10-17T06:10:58.820Z,100952.39
2018-10-17T06:16:52.746Z,100959.55
2018-10-17T06:19:56.616Z,100961.97
2018-10-17T06:22:45.034Z,100957.50
2018-10-17T06:25:32.594Z,100959.41
2018-10-17T06:28:22.885Z,100959.41
2018-10-17T06:31:10.276Z,100957.67
2018-10-17T06:33:58.180Z,100962.14
2018-10-17T06:39:52.691Z,100959.58
2018-10-17T06:42:42.243Z,100959.51
2018-10-17T06:45:30.167Z,100962.33
2018-10-17T06:48:18.035Z,100958.73
2018-10-17T06:51:06.021Z,100962.89
2018-10-17T06:53:53.376Z,100963.92
2018-10-17T06:56:40.902Z,100967.59
2018-10-17T07:08:48.865Z,100968.59
2018-10-17T07:11:39.553Z,100970.98
2018-10-17T07:14:28.062Z,100971.64
2018-10-17T07:17:18.741Z,100967.56
2018-10-17T07:20:06.694Z,100972.87
2018-10-17T07:32:21.219Z,100961.84
2018-10-17T07:35:08.811Z,100964.83
2018-10-17T07:37:57.353Z,100966.83
2018-10-17T07:43:51.646Z,100966.46
2018-10-17T07:46:39.221Z,100967.31
2018-10-17T07:49:27.506Z,100963.84
2018-10-17T07:52:15.849Z,100963.49
2018-10-17T08:07:38.594Z,100963.69
2018-10-17T08:10:26.653Z,100959.20
2018-10-17T08:13:14.228Z,100966.28
2018-10-17T08:19:17.415Z,100957.94
2018-10-17T08:22:07.220Z,100963.89
2018-10-17T08:31:06.999Z,100956.59
2018-10-17T08:33:57.446Z,100956.70
2018-10-17T08:36:54.244Z,100957.42
2018-10-17T08:42:48.049Z,100958.75
2018-10-17T08:45:35.585Z,100953.05
2018-10-17T08:48:22.837Z,100956.82
2018-10-17T08:51:12.692Z,100961.80
2018-10-17T08:54:02.316Z,100959.58
2018-10-17T08:59:57.139Z,100962.17
2018-10-17T09:06:01.335Z,100961.64
2018-10-17T09:08:49.926Z,100955.04
2018-10-17T09:11:39.164Z,100956.45
2018-10-17T09:14:29.702Z,100960.30
2018-10-17T09:17:17.714Z,100963.08
2018-10-17T09:20:06.348Z,100963.27
2018-10-17T09:22:53.519Z,100967.66
2018-10-17T09:25:43.789Z,100962.45
2018-10-17T09:28:33.088Z,100959.64
2018-10-17T09:31:24.649Z,100956.43
2018-10-17T09:34:14.301Z,100963.42
2018-10-17T09:37:02.727Z,100960.40
2018-10-17T09:39:52.152Z,100963.86
2018-10-17T09:42:39.311Z,100965.67
2018-10-17T09:45:28.054Z,100967.31
2018-10-17T09:48:15.817Z,100966.81
2018-10-17T09:51:03.561Z,100966.25
2018-10-17T09:53:51.544Z,100970.77
2018-10-17T09:56:38.837Z,100968.42
2018-10-17T09:59:26.259Z,100961.33
2018-10-17T10:02:16.362Z,100960.91
2018-10-17T10:05:05.408Z,100967.41
2018-10-17T10:07:52.852Z,100965.42
2018-10-17T10:10:42.714Z,100963.16
2018-10-17T10:13:30.407Z,100962.45
2018-10-17T10:16:18.854Z,100958.28
2018-10-17T10:19:07.122Z,100953.74
2018-10-17T10:21:54.921Z,100947.73
2018-10-17T10:24:42.382Z,100946.17
2018-10-17T10:27:31.109Z,100945.22
2018-10-17T10:30:18.657Z,100943.73
2018-10-17T10:36:13.839Z,100929.98
2018-10-17T10:39:02.075Z,100924.63
2018-10-17T10:41:49.375Z,100928.48
2018-10-17T10:44:41.898Z,100931.31
2018-10-17T10:47:29.970Z,100927.42
2018-10-17T10:50:18.720Z,100925.06
2018-10-17T10:53:07.033Z,100919.53
2018-10-17T10:55:55.379Z,100919.35
2018-10-17T10:58:45.071Z,100913.47
2018-10-17T11:01:32.562Z,100909.08
2018-10-17T11:04:20.722Z,100909.47
2018-10-17T11:07:10.811Z,100910.23
2018-10-17T11:09:58.124Z,100912.36
2018-10-17T11:12:45.548Z,100905.81
2018-10-17T11:18:38.991Z,100902.89
2018-10-17T11:21:26.900Z,100895.73
2018-10-17T11:24:14.286Z,100896.46
2018-10-17T11:27:01.497Z,100895.23
2018-10-17T11:29:49.289Z,100896.53
2018-10-17T11:32:37.386Z,100892.02
2018-10-17T11:35:24.600Z,100891.45
2018-10-17T11:38:13.340Z,100887.02
2018-10-17T11:41:00.951Z,100884.02
2018-10-17T11:43:48.183Z,100884.58
2018-10-17T11:46:35.462Z,100884.69
2018-10-17T11:49:22.828Z,100881.35
2018-10-17T11:52:11.059Z,100878.34
2018-10-17T11:54:59.218Z,100878.06
2018-10-17T11:57:46.881Z,100878.27
2018-10-17T12:00:34.201Z,100873.64
2018-10-17T12:03:22.187Z,100873.81
2018-10-17T12:06:09.688Z,100867.30
2018-10-17T12:08:59.703Z,100864.13
2018-10-17T12:11:48.060Z,100866.41
2018-10-17T12:14:35.438Z,100866.84
2018-10-17T12:17:22.909Z,100859.80
2018-10-17T12:20:10.513Z,100861.23
2018-10-17T12:22:59.936Z,100863.78
2018-10-17T12:25:47.343Z,100863.89
2018-10-17T12:28:34.871Z,100860.76
2018-10-17T12:31:22.807Z,100860.26
2018-10-17T12:34:10.228Z,100860.48
2018-10-17T12:36:57.676Z,100853.98
2018-10-17T12:39:45.028Z,100851.13
2018-10-17T12:42:32.665Z,100852.83
2018-10-17T12:45:22.710Z,100850.02
2018-10-17T12:48:09.964Z,100849.86
2018-10-17T12:50:57.549Z,100853.92
2018-10-17T12:53:45.333Z,100850.08
2018-10-17T12:56:34.767Z,100846.73
2018-10-17T12:59:22.171Z,100840.86
2018-10-17T13:02:09.585Z,100838.23
2018-10-17T13:04:59.602Z,100839.34
2018-10-17T13:07:49.691Z,100837.02
2018-10-17T13:10:36.805Z,100842.61
2018-10-17T13:13:24.561Z,100833.28
2018-10-17T13:16:15.673Z,100829.27
2018-10-17T13:19:05.426Z,100833.45
2018-10-17T13:21:53.926Z,100835.62
2018-10-17T13:24:41.609Z,100827.61
2018-10-17T13:27:28.535Z,100833.30
2018-10-17T13:30:16.671Z,100826.60
2018-10-17T13:33:04.198Z,100832.48
2018-10-17T13:35:51.543Z,100821.76
2018-10-17T13:38:49.143Z,100817.06
2018-10-17T13:41:36.261Z,100818.10
2018-10-17T13:44:23.451Z,100826.33
2018-10-17T13:47:11.177Z,100824.48
2018-10-17T13:50:03.162Z,100823.20
2018-10-17T13:52:50.857Z,100819.65
2018-10-17T13:55:38.924Z,100820.22
2018-10-17T13:58:27.369Z,100829.31
2018-10-17T14:04:20.538Z,100824.46
2018-10-17T14:07:09.978Z,100825.94
2018-10-17T14:09:57.293Z,100824.94
2018-10-17T14:12:46.537Z,100826.33
2018-10-17T14:15:33.773Z,100824.53
2018-10-17T14:18:22.508Z,100828.58
2018-10-17T14:21:11.750Z,100826.89
2018-10-17T14:23:59.411Z,100819.84
2018-10-17T14:26:47.774Z,100829.63
2018-10-17T14:29:35.309Z,100824.23
2018-10-17T14:32:24.699Z,100822.85
2018-10-17T14:35:13.898Z,100822.01
2018-10-17T14:38:01.209Z,100823.73
2018-10-17T14:43:55.928Z,100822.59
2018-10-17T14:46:43.448Z,100822.28
2018-10-17T14:49:31.017Z,100820.21
2018-10-17T14:55:24.913Z,100820.12
2018-10-17T14:58:12.148Z,100820.10
2018-10-17T15:01:03.682Z,100820.89
2018-10-17T15:03:51.208Z,100822.66
2018-10-17T15:06:38.841Z,100820.01
2018-10-17T15:09:34.019Z,100824.19
2018-10-17T15:12:21.540Z,100823.34
2018-10-17T15:15:09.083Z,100817.83
2018-10-17T15:17:58.781Z,100829.53
2018-10-17T15:20:47.918Z,100829.03
2018-10-17T15:23:38.052Z,100828.09
2018-10-17T15:29:32.520Z,100826.87
2018-10-17T15:32:22.895Z,100830.29
2018-10-17T15:38:16.813Z,100827.02
2018-10-17T15:41:04.922Z,100834.02
2018-10-17T15:43:52.648Z,100838.88
2018-10-17T15:46:55.046Z,100832.34
2018-10-17T15:49:44.989Z,100826.81
2018-10-17T15:52:32.705Z,100828.73
2018-10-17T15:58:29.348Z,100835.94
2018-10-17T16:04:22.640Z,100841.96
2018-10-17T16:07:25.980Z,100835.91
2018-10-17T16:10:15.525Z,100838.95
2018-10-17T16:16:16.975Z,100840.97
2018-10-17T16:22:11.100Z,100847.73
2018-10-17T16:24:58.311Z,100851.25
2018-10-17T16:27:45.788Z,100855.03
2018-10-17T16:30:35.404Z,100851.81
2018-10-17T16:33:22.977Z,100853.61
2018-10-17T16:36:19.954Z,100855.41
2018-10-17T16:39:17.803Z,100852.22
2018-10-17T16:42:05.098Z,100851.83
2018-10-17T16:48:02.869Z,100847.53
2018-10-17T16:53:56.615Z,100855.89
2018-10-17T16:56:51.810Z,100858.97
2018-10-17T17:02:45.718Z,100867.83
2018-10-17T17:05:33.923Z,100869.28
2018-10-17T17:08:29.154Z,100870.80
2018-10-17T17:11:17.468Z,100870.47
2018-10-17T17:17:10.686Z,100874.95
2018-10-17T17:19:58.670Z,100883.83
2018-10-17T17:22:46.369Z,100885.02
2018-10-17T17:25:37.017Z,100886.50
2018-10-17T17:31:30.983Z,100892.75
2018-10-17T17:34:20.457Z,100891.91
2018-10-17T17:37:08.066Z,100893.01
2018-10-17T17:39:55.422Z,100889.98
2018-10-17T17:42:42.891Z,100889.83
2018-10-17T17:45:48.542Z,100893.63
2018-10-17T17:48:52.166Z,100893.97
2018-10-17T17:51:41.728Z,100887.65
2018-10-17T17:54:31.112Z,100890.45
2018-10-17T17:57:18.704Z,100886.86
2018-10-17T18:00:06.967Z,100889.76
2018-10-17T18:02:55.429Z,100884.13
2018-10-17T18:05:42.506Z,100890.91
2018-10-17T18:08:30.783Z,100897.22
2018-10-17T18:14:24.972Z,100898.45
2018-10-17T18:17:12.199Z,100898.55
2018-10-17T18:19:59.446Z,100901.50
2018-10-17T18:22:46.925Z,100900.84
2018-10-17T18:25:34.755Z,100902.58
2018-10-17T18:28:21.985Z,100902.95
2018-10-17T18:37:25.426Z,100906.74
2018-10-17T18:46:34.109Z,100922.59
2018-10-17T18:49:24.458Z,100927.03
2018-10-17T18:52:12.148Z,100924.86
2018-10-17T18:55:08.208Z,100932.77
2018-10-17T18:57:57.711Z,100930.88
2018-10-17T19:00:45.018Z,100936.53
2018-10-17T19:03:32.971Z,100934.88
2018-10-17T19:06:20.989Z,100938.59
2018-10-17T19:09:08.902Z,100939.09
2018-10-17T19:12:03.820Z,100945.83
2018-10-17T19:14:51.488Z,100945.97
2018-10-17T19:17:38.605Z,100941.69
2018-10-17T19:20:32.857Z,100945.67
2018-10-17T19:23:21.595Z,100948.71
2018-10-17T19:26:11.191Z,100946.77
2018-10-17T19:28:59.759Z,100947.52
2018-10-17T19:31:48.182Z,100948.55
2018-10-17T19:34:36.161Z,100950.11
2018-10-17T19:37:25.035Z,100945.89
2018-10-17T19:40:12.757Z,100947.48
2018-10-17T19:43:01.894Z,100952.95
2018-10-17T19:45:52.156Z,100949.78
2018-10-17T19:48:45.129Z,100947.45
2018-10-17T19:51:39.102Z,100954.06
2018-10-17T19:54:26.935Z,100951.81
2018-10-17T19:57:25.260Z,100960.19
2018-10-17T20:00:15.267Z,100961.48
2018-10-17T20:03:13.348Z,100959.73
2018-10-17T20:12:12.809Z,100956.83
2018-10-17T20:15:00.331Z,100949.77
2018-10-17T20:24:13.515Z,100952.55
2018-10-17T20:27:09.179Z,100955.00
2018-10-17T20:42:22.996Z,100962.08
2018-10-17T20:45:12.355Z,100972.34
2018-10-17T20:51:09.141Z,100957.82
2018-10-17T20:53:57.215Z,100957.09
2018-10-17T20:56:46.120Z,100958.66
2018-10-17T20:59:45.597Z,100960.71
2018-10-17T21:02:44.034Z,100955.52
2018-10-17T21:05:31.661Z,100959.45
2018-10-17T21:08:19.658Z,100958.59
2018-10-17T21:11:10.439Z,100952.20
2018-10-17T21:14:00.279Z,100951.53
2018-10-17T21:16:47.683Z,100951.23
2018-10-17T21:19:35.024Z,100951.48
2018-10-17T21:22:22.399Z,100952.83
2018-10-17T21:25:11.789Z,100946.16
2018-10-17T21:28:02.107Z,100950.55
2018-10-17T21:30:49.473Z,100955.36
2018-10-17T21:33:38.337Z,100955.52
2018-10-17T21:36:26.960Z,100961.24
2018-10-17T21:39:14.702Z,100949.32
2018-10-17T21:42:02.970Z,100949.41
2018-10-17T21:44:50.725Z,100949.88
2018-10-17T21:47:38.232Z,100942.52
2018-10-17T21:50:25.807Z,100945.67
2018-10-17T21:53:13.313Z,100950.78
2018-10-17T21:56:00.739Z,100942.30
2018-10-17T22:02:00.415Z,100945.66
2018-10-17T22:04:54.568Z,100946.23
2018-10-17T22:07:53.401Z,100944.27
2018-10-17T22:10:41.908Z,100939.09
2018-10-17T22:16:35.683Z,100942.64
2018-10-17T22:19:24.598Z,100942.88
2018-10-17T22:22:11.942Z,100941.31
2018-10-17T22:28:08.201Z,100937.06
2018-10-17T22:30:55.523Z,100939.85
2018-10-17T22:33:43.711Z,100939.07
2018-10-17T22:36:31.921Z,100941.87
2018-10-17T22:39:19.263Z,100946.02
2018-10-17T22:42:07.432Z,100949.02
2018-10-17T22:44:54.713Z,100949.05
2018-10-17T22:47:43.024Z,100949.03
2018-10-17T22:50:34.471Z,100947.08
2018-10-17T22:53:22.913Z,100954.31
2018-10-17T22:56:11.554Z,100954.61
2018-10-17T22:58:59.340Z,100954.91
2018-10-17T23:01:46.986Z,100959.70
2018-10-17T23:04:35.478Z,100958.98
2018-10-17T23:07:30.839Z,100965.87
2018-10-17T23:10:18.016Z,100969.67
2018-10-17T23:13:12.780Z,100956.65
2018-10-17T23:16:01.482Z,100960.09
2018-10-17T23:18:49.028Z,100953.14
2018-10-17T23:21:40.061Z,100955.75
2018-10-17T23:24:42.633Z,100958.39
2018-10-17T23:27:30.019Z,100959.95
2018-10-17T23:30:17.512Z,100952.89
2018-10-17T23:33:05.928Z,100958.67
2018-10-17T23:35:54.168Z,100959.56
2018-10-17T23:38:44.632Z,100966.02
2018-10-17T23:41:33.480Z,100961.30
2018-10-17T23:44:23.233Z,100964.09
2018-10-17T23:47:12.830Z,100955.71
2018-10-17T23:50:01.063Z,100957.53
2018-10-17T23:55:55.544Z,100947.64
2018-10-17T23:58:44.052Z,100950.06
